createdAt,value
2022-10-02T00:02:29.238Z,11.40
2022-10-02T00:05:17.478Z,11.30
2022-10-02T00:08:10.129Z,11.10
2022-10-02T00:10:42.103Z,11.50
2022-10-02T00:13:15.658Z,11.00
2022-10-02T00:15:44.320Z,10.90
2022-10-02T00:18:16.222Z,10.90
2022-10-02T00:21:08.616Z,11.00
2022-10-02T00:23:40.190Z,11.10
2022-10-02T00:26:40.414Z,10.90
2022-10-02T00:29:26.996Z,10.90
2022-10-02T00:32:19.600Z,11.00
2022-10-02T00:35:19.514Z,11.00
2022-10-02T00:38:06.271Z,11.00
2022-10-02T00:41:12.404Z,11.00
2022-10-02T00:43:43.069Z,11.00
2022-10-02T00:46:56.531Z,11.00
2022-10-02T00:49:33.873Z,11.10
2022-10-02T00:52:20.513Z,11.10
2022-10-02T00:55:04.200Z,11.20
2022-10-02T00:57:57.268Z,11.10
2022-10-02T01:00:26.631Z,11.00
2022-10-02T01:03:42.295Z,10.90
2022-10-02T01:06:11.669Z,10.80
2022-10-02T01:08:41.427Z,10.80
2022-10-02T01:11:10.067Z,10.90
2022-10-02T01:13:38.680Z,10.80
2022-10-02T01:16:12.815Z,10.70
2022-10-02T01:18:42.220Z,10.70
2022-10-02T01:21:26.994Z,10.80
2022-10-02T01:24:30.783Z,10.80
2022-10-02T01:26:59.305Z,10.90
2022-10-02T01:29:28.474Z,10.80
2022-10-02T01:31:57.536Z,10.80
2022-10-02T01:34:27.181Z,10.70
2022-10-02T01:36:56.391Z,10.70
2022-10-02T01:39:24.709Z,10.70
2022-10-02T01:41:55.906Z,10.70
2022-10-02T01:44:25.487Z,10.80
2022-10-02T01:47:12.392Z,10.70
2022-10-02T01:49:52.434Z,10.70
2022-10-02T01:52:23.885Z,10.70
2022-10-02T01:55:01.847Z,10.60
2022-10-02T01:57:49.402Z,10.60
2022-10-02T02:00:21.168Z,10.50
2022-10-02T02:05:40.606Z,10.50
2022-10-02T02:08:11.802Z,10.60
2022-10-02T02:10:58.372Z,10.60
2022-10-02T02:13:43.602Z,10.50
2022-10-02T02:16:26.624Z,10.40
2022-10-02T02:19:11.427Z,10.30
2022-10-02T02:21:44.703Z,10.20
2022-10-02T02:24:33.110Z,10.40
2022-10-02T02:27:04.506Z,10.40
2022-10-02T02:29:37.454Z,10.40
2022-10-02T02:32:10.162Z,10.50
2022-10-02T02:34:52.929Z,10.60
2022-10-02T02:37:24.669Z,10.50
2022-10-02T02:39:55.252Z,10.50
2022-10-02T02:42:29.421Z,10.40
2022-10-02T02:45:16.098Z,10.50
2022-10-02T02:47:54.627Z,10.40
2022-10-02T02:50:26.835Z,10.50
2022-10-02T02:52:59.549Z,10.60
2022-10-02T02:55:45.532Z,10.60
2022-10-02T02:58:17.231Z,10.50
2022-10-02T03:00:46.402Z,10.40
2022-10-02T03:03:15.264Z,10.30
2022-10-02T03:05:49.928Z,10.30
2022-10-02T03:08:24.944Z,10.30
2022-10-02T03:10:56.398Z,10.10
2022-10-02T03:13:36.649Z,10.10
2022-10-02T03:16:17.016Z,10.10
2022-10-02T03:18:59.013Z,10.20
2022-10-02T03:21:35.593Z,10.10
2022-10-02T03:24:12.155Z,10.10
2022-10-02T03:27:02.987Z,10.00
2022-10-02T03:29:44.443Z,10.00
2022-10-02T03:32:15.489Z,9.90
2022-10-02T03:34:44.119Z,10.00
2022-10-02T03:37:13.270Z,10.10
2022-10-02T03:39:45.690Z,10.10
2022-10-02T03:42:15.437Z,10.10
2022-10-02T03:44:44.458Z,10.10
2022-10-02T03:47:12.791Z,10.10
2022-10-02T03:49:41.596Z,10.10
2022-10-02T03:52:17.096Z,10.00
2022-10-02T03:54:45.763Z,10.00
2022-10-02T03:57:20.065Z,10.10
2022-10-02T03:59:51.451Z,10.10
2022-10-02T04:02:43.620Z,10.10
2022-10-02T04:05:27.182Z,10.20
2022-10-02T04:07:59.970Z,10.30
2022-10-02T04:10:45.275Z,10.20
2022-10-02T04:13:22.877Z,10.10
2022-10-02T04:16:10.886Z,10.00
2022-10-02T04:19:01.704Z,10.10
2022-10-02T04:21:38.710Z,10.20
2022-10-02T04:24:12.718Z,10.10
2022-10-02T04:26:47.993Z,10.00
2022-10-02T04:29:25.133Z,9.90
2022-10-02T04:32:08.102Z,9.80
2022-10-02T04:34:36.732Z,9.80
2022-10-02T04:37:04.927Z,9.80
2022-10-02T04:39:48.042Z,9.90
2022-10-02T04:42:33.205Z,10.00
2022-10-02T04:45:26.758Z,10.00
2022-10-02T04:48:27.049Z,10.10
2022-10-02T04:51:23.021Z,10.00
2022-10-02T04:53:59.821Z,9.90
2022-10-02T04:56:49.601Z,9.90
2022-10-02T04:59:32.575Z,10.10
2022-10-02T05:02:19.345Z,10.10
2022-10-02T05:05:10.697Z,10.10
2022-10-02T05:07:41.919Z,10.10
2022-10-02T05:10:37.070Z,10.10
2022-10-02T05:13:26.061Z,10.00
2022-10-02T05:16:24.282Z,10.00
2022-10-02T05:19:13.070Z,9.90
2022-10-02T05:22:03.941Z,10.00
2022-10-02T05:24:35.146Z,10.10
2022-10-02T05:27:27.837Z,10.20
2022-10-02T05:30:05.637Z,10.40
2022-10-02T05:33:02.442Z,10.60
2022-10-02T05:35:46.011Z,10.70
2022-10-02T05:38:32.794Z,10.90
2022-10-02T05:41:15.347Z,11.10
2022-10-02T05:44:06.475Z,11.50
2022-10-02T05:46:44.833Z,11.60
2022-10-02T05:49:20.711Z,11.90
2022-10-02T05:51:53.832Z,12.00
2022-10-02T05:54:24.617Z,12.20
2022-10-02T05:57:00.750Z,12.40
2022-10-02T05:59:42.120Z,12.60
2022-10-02T06:02:52.133Z,12.50
2022-10-02T06:06:02.939Z,12.80
2022-10-02T06:09:08.869Z,13.20
2022-10-02T06:11:50.518Z,13.70
2022-10-02T06:14:41.742Z,13.50
2022-10-02T06:17:24.676Z,13.60
2022-10-02T06:20:03.784Z,13.60
2022-10-02T06:22:40.602Z,13.70
2022-10-02T06:25:23.335Z,14.10
2022-10-02T06:28:08.128Z,14.10
2022-10-02T06:30:43.431Z,13.90
2022-10-02T06:33:25.388Z,13.80
2022-10-02T06:35:59.982Z,13.70
2022-10-02T06:38:39.972Z,14.20
2022-10-02T06:41:13.820Z,14.70
2022-10-02T06:44:02.743Z,14.80
2022-10-02T06:46:37.837Z,14.70
2022-10-02T06:49:40.914Z,15.00
2022-10-02T06:52:51.423Z,15.10
2022-10-02T06:55:41.158Z,16.10
2022-10-02T06:58:30.672Z,16.40
2022-10-02T07:01:04.610Z,16.50
2022-10-02T07:03:41.458Z,16.70
2022-10-02T07:06:30.404Z,17.00
2022-10-02T07:09:26.704Z,17.30
2022-10-02T07:12:04.384Z,17.00
2022-10-02T07:14:47.786Z,16.90
2022-10-02T07:17:41.605Z,17.50
2022-10-02T07:20:17.257Z,18.00
2022-10-02T07:22:57.689Z,18.10
2022-10-02T07:25:55.479Z,17.30
2022-10-02T07:28:49.440Z,17.20
2022-10-02T07:31:52.853Z,17.70
2022-10-02T07:34:21.322Z,17.80
2022-10-02T07:37:27.931Z,17.90
2022-10-02T07:40:15.362Z,17.60
2022-10-02T07:42:55.639Z,17.50
2022-10-02T07:45:42.831Z,17.70
2022-10-02T07:48:29.525Z,18.00
2022-10-02T07:51:42.112Z,18.40
2022-10-02T07:54:16.619Z,18.40
2022-10-02T07:56:48.196Z,18.50
2022-10-02T07:59:19.489Z,18.90
2022-10-02T08:01:50.823Z,19.20
2022-10-02T08:04:27.381Z,19.50
2022-10-02T08:07:00.989Z,19.50
2022-10-02T08:09:39.737Z,19.10
2022-10-02T08:12:34.155Z,19.40
2022-10-02T08:15:06.261Z,19.20
2022-10-02T08:17:43.691Z,18.90
2022-10-02T08:20:29.582Z,19.00
2022-10-02T08:23:25.884Z,18.70
2022-10-02T08:26:35.590Z,18.90
2022-10-02T08:29:15.405Z,19.20
2022-10-02T08:31:43.435Z,19.50
2022-10-02T08:34:21.202Z,20.10
2022-10-02T08:37:11.883Z,20.80
2022-10-02T08:40:25.358Z,20.60
2022-10-02T08:43:20.974Z,20.20
2022-10-02T08:46:29.808Z,21.10
2022-10-02T08:49:40.901Z,21.10
2022-10-02T08:52:42.261Z,20.60
2022-10-02T08:55:10.621Z,21.00
2022-10-02T08:58:04.425Z,21.30
2022-10-02T09:01:02.286Z,21.50
2022-10-02T09:03:58.234Z,21.60
2022-10-02T09:06:46.219Z,21.90
2022-10-02T09:09:27.203Z,21.90
2022-10-02T09:12:33.774Z,22.20
2022-10-02T09:15:40.608Z,21.20
2022-10-02T09:18:49.878Z,21.90
2022-10-02T09:21:32.298Z,22.70
2022-10-02T09:24:30.949Z,22.40
2022-10-02T09:27:39.182Z,22.90
2022-10-02T09:30:33.230Z,22.10
2022-10-02T09:33:16.381Z,21.40
2022-10-02T09:36:07.364Z,21.90
2022-10-02T09:38:39.246Z,21.90
2022-10-02T09:41:25.452Z,22.40
2022-10-02T09:44:11.184Z,22.70
2022-10-02T09:47:04.244Z,23.10
2022-10-02T09:49:47.170Z,23.00
2022-10-02T09:52:42.989Z,22.70
2022-10-02T09:55:22.936Z,22.80
2022-10-02T09:58:09.815Z,22.70
2022-10-02T10:01:14.406Z,22.60
2022-10-02T10:03:51.359Z,21.60
2022-10-02T10:06:39.417Z,21.40
2022-10-02T10:09:11.622Z,21.50
2022-10-02T10:12:33.858Z,21.80
2022-10-02T10:15:08.847Z,21.50
2022-10-02T10:17:56.740Z,21.70
2022-10-02T10:20:44.062Z,21.60
2022-10-02T10:23:20.964Z,21.50
2022-10-02T10:25:54.501Z,21.70
2022-10-02T10:29:21.682Z,21.70
2022-10-02T10:32:08.550Z,21.60
2022-10-02T10:34:57.991Z,21.30
2022-10-02T10:38:21.803Z,21.50
2022-10-02T10:41:28.814Z,21.30
2022-10-02T10:44:33.851Z,21.50
2022-10-02T10:47:36.007Z,21.50
2022-10-02T10:50:07.108Z,21.60
2022-10-02T10:52:44.433Z,21.90
2022-10-02T10:55:19.877Z,22.10
2022-10-02T10:58:15.772Z,22.20
2022-10-02T11:00:59.910Z,22.10
2022-10-02T11:03:39.809Z,21.90
2022-10-02T11:06:23.016Z,22.20
2022-10-02T11:09:07.804Z,21.90
2022-10-02T11:11:58.347Z,21.90
2022-10-02T11:15:14.534Z,21.90
2022-10-02T11:18:20.897Z,21.90
2022-10-02T11:21:10.583Z,22.10
2022-10-02T11:23:46.994Z,21.90
2022-10-02T11:26:36.705Z,21.90
2022-10-02T11:29:41.987Z,22.00
2022-10-02T11:32:54.372Z,21.90
2022-10-02T11:35:30.250Z,21.60
2022-10-02T11:38:26.704Z,21.80
2022-10-02T11:41:15.966Z,22.10
2022-10-02T11:43:58.538Z,22.30
2022-10-02T11:46:36.626Z,22.00
2022-10-02T11:49:46.166Z,22.00
2022-10-02T11:52:55.481Z,22.10
2022-10-02T11:55:30.547Z,22.10
2022-10-02T11:58:17.070Z,22.00
2022-10-02T12:00:57.018Z,21.70
2022-10-02T12:03:46.742Z,22.00
2022-10-02T12:06:33.838Z,22.10
2022-10-02T12:09:32.332Z,22.20
2022-10-02T12:12:27.815Z,22.30
2022-10-02T12:15:01.827Z,22.50
2022-10-02T12:17:53.723Z,22.40
2022-10-02T12:21:02.645Z,22.40
2022-10-02T12:24:20.661Z,22.40
2022-10-02T12:27:17.188Z,22.40
2022-10-02T12:30:04.517Z,22.30
2022-10-02T12:32:36.714Z,22.20
2022-10-02T12:35:27.796Z,22.40
2022-10-02T12:38:02.818Z,22.50
2022-10-02T12:40:43.919Z,22.50
2022-10-02T12:43:36.081Z,22.50
2022-10-02T12:46:14.182Z,22.30
2022-10-02T12:49:13.503Z,22.30
2022-10-02T12:51:50.333Z,22.20
2022-10-02T12:54:34.676Z,22.00
2022-10-02T12:57:09.063Z,22.00
2022-10-02T13:00:12.005Z,21.90
2022-10-02T13:03:00.745Z,22.00
2022-10-02T13:06:03.756Z,22.10
2022-10-02T13:09:05.932Z,22.20
2022-10-02T13:12:03.017Z,22.60
2022-10-02T13:14:37.745Z,22.80
2022-10-02T13:17:50.306Z,23.00
2022-10-02T13:20:39.226Z,22.40
2022-10-02T13:23:45.490Z,22.60
2022-10-02T13:26:40.288Z,22.90
2022-10-02T13:29:35.864Z,23.20
2022-10-02T13:32:07.228Z,23.40
2022-10-02T13:35:01.940Z,23.20
2022-10-02T13:37:51.677Z,23.20
2022-10-02T13:40:25.883Z,22.90
2022-10-02T13:43:29.177Z,22.90
2022-10-02T13:46:16.287Z,23.10
2022-10-02T13:48:56.268Z,23.00
2022-10-02T13:51:31.766Z,22.90
2022-10-02T13:54:12.672Z,22.90
2022-10-02T13:57:01.758Z,22.70
2022-10-02T13:59:46.035Z,22.60
2022-10-02T14:02:21.355Z,22.60
2022-10-02T14:05:01.334Z,22.60
2022-10-02T14:08:09.542Z,22.50
2022-10-02T14:10:56.028Z,22.50
2022-10-02T14:13:39.034Z,22.50
2022-10-02T14:16:23.850Z,22.50
2022-10-02T14:19:29.240Z,22.40
2022-10-02T14:22:28.030Z,22.30
2022-10-02T14:25:18.202Z,22.30
2022-10-02T14:28:04.087Z,22.40
2022-10-02T14:31:20.151Z,22.40
2022-10-02T14:34:09.294Z,22.30
2022-10-02T14:36:52.836Z,22.30
2022-10-02T14:39:34.748Z,22.30
2022-10-02T14:42:32.536Z,22.20
2022-10-02T14:45:25.956Z,22.10
2022-10-02T14:48:16.311Z,22.10
2022-10-02T14:51:14.556Z,22.10
2022-10-02T14:54:02.577Z,22.10
2022-10-02T14:57:01.780Z,22.00
2022-10-02T15:00:05.646Z,21.90
2022-10-02T15:02:55.531Z,21.90
2022-10-02T15:06:01.116Z,21.90
2022-10-02T15:08:48.530Z,21.80
2022-10-02T15:11:43.519Z,21.80
2022-10-02T15:14:18.962Z,21.70
2022-10-02T15:17:15.809Z,21.60
2022-10-02T15:20:19.257Z,21.60
2022-10-02T15:22:58.732Z,21.60
2022-10-02T15:25:43.461Z,21.60
2022-10-02T15:28:36.341Z,21.60
2022-10-02T15:31:36.643Z,21.50
2022-10-02T15:34:30.320Z,21.50
2022-10-02T15:37:24.297Z,21.50
2022-10-02T15:40:20.151Z,21.50
2022-10-02T15:43:00.598Z,21.40
2022-10-02T15:45:36.764Z,21.40
2022-10-02T15:48:46.071Z,21.30
2022-10-02T15:51:51.739Z,21.30
2022-10-02T15:54:39.179Z,21.30
2022-10-02T15:57:26.739Z,21.30
2022-10-02T16:00:16.957Z,21.20
2022-10-02T16:02:57.654Z,21.20
2022-10-02T16:05:31.602Z,21.20
2022-10-02T16:08:17.971Z,21.20
2022-10-02T16:11:11.383Z,21.20
2022-10-02T16:14:00.238Z,21.20
2022-10-02T16:16:46.396Z,21.10
2022-10-02T16:19:20.149Z,21.00
2022-10-02T16:22:07.199Z,20.90
2022-10-02T16:24:59.086Z,20.90
2022-10-02T16:27:48.997Z,20.80
2022-10-02T16:30:24.072Z,20.70
2022-10-02T16:33:20.754Z,20.60
2022-10-02T16:36:19.455Z,20.50
2022-10-02T16:39:14.727Z,20.40
2022-10-02T16:41:58.789Z,20.30
2022-10-02T16:44:46.035Z,19.90
2022-10-02T16:47:33.798Z,19.90
2022-10-02T16:50:24.938Z,19.80
2022-10-02T16:53:03.050Z,19.60
2022-10-02T16:55:45.941Z,19.40
2022-10-02T16:58:36.168Z,19.20
2022-10-02T17:01:24.987Z,19.10
2022-10-02T17:04:11.735Z,19.00
2022-10-02T17:06:58.274Z,18.90
2022-10-02T17:09:47.775Z,18.80
2022-10-02T17:12:26.753Z,18.80
2022-10-02T17:14:58.261Z,18.70
2022-10-02T17:17:51.797Z,18.60
2022-10-02T17:20:32.109Z,18.40
2022-10-02T17:23:44.865Z,18.20
2022-10-02T17:26:29.610Z,18.10
2022-10-02T17:29:27.891Z,18.00
2022-10-02T17:32:01.471Z,17.90
2022-10-02T17:34:44.577Z,17.90
2022-10-02T17:37:18.212Z,17.80
2022-10-02T17:40:12.137Z,17.60
2022-10-02T17:43:00.604Z,17.50
2022-10-02T17:46:01.102Z,17.50
2022-10-02T17:49:07.193Z,17.40
2022-10-02T17:51:53.003Z,17.30
2022-10-02T17:54:48.777Z,17.20
2022-10-02T17:57:20.652Z,17.10
2022-10-02T18:00:05.860Z,17.10
2022-10-02T18:03:12.284Z,17.00
2022-10-02T18:05:57.145Z,16.90
2022-10-02T18:09:06.238Z,16.80
2022-10-02T18:12:00.211Z,16.70
2022-10-02T18:14:31.289Z,16.60
2022-10-02T18:17:19.014Z,16.60
2022-10-02T18:20:11.300Z,16.50
2022-10-02T18:23:15.522Z,16.40
2022-10-02T18:26:05.523Z,16.40
2022-10-02T18:28:48.849Z,16.40
2022-10-02T18:31:51.081Z,16.30
2022-10-02T18:34:43.541Z,16.30
2022-10-02T18:37:33.246Z,16.20
2022-10-02T18:40:22.506Z,16.10
2022-10-02T18:43:12.112Z,16.10
2022-10-02T18:46:10.994Z,16.00
2022-10-02T18:48:45.573Z,16.00
2022-10-02T18:51:21.917Z,16.00
2022-10-02T18:54:06.091Z,15.90
2022-10-02T18:56:44.138Z,15.90
2022-10-02T18:59:19.327Z,16.00
2022-10-02T19:02:26.607Z,16.00
2022-10-02T19:04:57.880Z,16.00
2022-10-02T19:07:38.699Z,15.90
2022-10-02T19:10:28.967Z,15.80
2022-10-02T19:13:03.273Z,15.80
2022-10-02T19:15:33.798Z,15.70
2022-10-02T19:18:07.304Z,15.80
2022-10-02T19:20:44.429Z,15.70
2022-10-02T19:23:31.251Z,15.60
2022-10-02T19:26:07.323Z,15.50
2022-10-02T19:28:45.709Z,15.40
2022-10-02T19:31:21.793Z,15.40
2022-10-02T19:34:03.716Z,15.40
2022-10-02T19:36:38.329Z,15.30
2022-10-02T19:39:17.802Z,15.30
2022-10-02T19:41:47.700Z,15.20
2022-10-02T19:44:34.458Z,15.20
2022-10-02T19:47:16.956Z,15.10
2022-10-02T19:49:49.474Z,15.10
2022-10-02T19:52:37.915Z,15.00
2022-10-02T19:55:28.298Z,15.00
2022-10-02T19:58:08.450Z,15.00
2022-10-02T20:00:38.727Z,15.10
2022-10-02T20:03:15.916Z,15.10
2022-10-02T20:05:46.584Z,15.00
2022-10-02T20:08:18.014Z,14.90
2022-10-02T20:10:59.181Z,14.90
2022-10-02T20:13:37.249Z,14.90
2022-10-02T20:16:28.475Z,14.90
2022-10-02T20:18:56.937Z,14.90
2022-10-02T20:21:40.439Z,14.90
2022-10-02T20:24:25.388Z,14.90
2022-10-02T20:26:56.306Z,14.90
2022-10-02T20:29:34.451Z,14.80
2022-10-02T20:32:32.503Z,14.80
2022-10-02T20:35:12.245Z,14.80
2022-10-02T20:37:43.445Z,14.90
2022-10-02T20:40:19.417Z,14.80
2022-10-02T20:43:19.839Z,14.80
2022-10-02T20:46:11.538Z,14.70
2022-10-02T20:49:09.220Z,14.70
2022-10-02T20:51:47.298Z,14.60
2022-10-02T20:54:41.893Z,14.50
2022-10-02T20:58:00.549Z,14.60
2022-10-02T21:00:40.222Z,14.50
2022-10-02T21:03:21.203Z,14.50
2022-10-02T21:06:11.110Z,14.40
2022-10-02T21:09:14.451Z,14.40
2022-10-02T21:12:04.345Z,14.40
2022-10-02T21:14:54.752Z,14.30
2022-10-02T21:18:18.339Z,14.40
2022-10-02T21:21:00.711Z,14.40
2022-10-02T21:23:56.217Z,14.40
2022-10-02T21:26:31.093Z,14.30
2022-10-02T21:29:02.156Z,14.20
2022-10-02T21:31:59.300Z,14.10
2022-10-02T21:35:07.393Z,14.10
2022-10-02T21:37:58.965Z,14.10
2022-10-02T21:40:38.774Z,14.10
2022-10-02T21:43:50.295Z,14.10
2022-10-02T21:46:44.539Z,14.10
2022-10-02T21:49:15.958Z,14.10
2022-10-02T21:52:09.051Z,14.20
2022-10-02T21:54:51.469Z,14.20
2022-10-02T21:57:47.208Z,14.20
2022-10-02T22:00:26.733Z,14.10
2022-10-02T22:03:18.127Z,14.20
2022-10-02T22:06:16.893Z,14.10
2022-10-02T22:08:51.712Z,14.10
2022-10-02T22:11:51.058Z,14.10
2022-10-02T22:14:40.678Z,14.00
2022-10-02T22:17:12.277Z,13.90
2022-10-02T22:20:08.506Z,13.80
2022-10-02T22:22:43.172Z,13.80
2022-10-02T22:25:29.167Z,13.70
2022-10-02T22:28:28.097Z,13.80
2022-10-02T22:30:56.189Z,13.80
2022-10-02T22:33:47.223Z,13.90
2022-10-02T22:36:37.688Z,13.70
2022-10-02T22:39:36.835Z,13.60
2022-10-02T22:42:20.344Z,13.50
2022-10-02T22:44:56.070Z,13.60
2022-10-02T22:47:51.269Z,13.50
2022-10-02T22:50:44.847Z,13.40
2022-10-02T22:53:24.330Z,13.40
2022-10-02T22:55:57.329Z,13.40
2022-10-02T22:58:47.322Z,13.40
2022-10-02T23:01:48.628Z,13.50
2022-10-02T23:05:00.525Z,13.50
2022-10-02T23:07:55.840Z,13.40
2022-10-02T23:10:43.757Z,13.30
2022-10-02T23:13:48.993Z,13.40
2022-10-02T23:16:32.788Z,13.50
2022-10-02T23:19:22.735Z,13.50
2022-10-02T23:21:59.476Z,13.50
2022-10-02T23:25:00.579Z,13.50
2022-10-02T23:27:52.771Z,13.30
2022-10-02T23:30:23.416Z,13.50
2022-10-02T23:33:26.257Z,13.60
2022-10-02T23:36:13.755Z,13.60
2022-10-02T23:38:56.103Z,13.50
2022-10-02T23:41:46.662Z,13.50
2022-10-02T23:44:31.665Z,13.50
2022-10-02T23:47:21.343Z,13.50
2022-10-02T23:49:53.617Z,13.50
2022-10-02T23:52:41.507Z,13.50
2022-10-02T23:55:14.154Z,13.50
2022-10-02T23:58:13.281Z,13.60
